createdAt,value
2022-10-23T00:02:02.669Z,12.67
2022-10-23T00:04:29.869Z,12.70
2022-10-23T00:06:56.791Z,12.65
2022-10-23T00:09:24.929Z,12.72
2022-10-23T00:11:53.312Z,12.73
2022-10-23T00:14:23.042Z,12.62
2022-10-23T00:16:50.721Z,12.65
2022-10-23T00:19:18.437Z,12.84
2022-10-23T00:21:45.411Z,12.82
2022-10-23T00:24:12.636Z,12.97
2022-10-23T00:26:40.778Z,12.83
2022-10-23T00:29:09.001Z,12.81
2022-10-23T00:31:36.298Z,12.83
2022-10-23T00:34:04.285Z,12.81
2022-10-23T00:36:31.419Z,12.69
2022-10-23T00:38:58.387Z,12.67
2022-10-23T00:41:28.948Z,12.71
2022-10-23T00:44:07.299Z,12.70
2022-10-23T00:46:36.311Z,12.64
2022-10-23T00:49:05.371Z,12.73
2022-10-23T00:51:38.917Z,12.72
2022-10-23T00:54:24.394Z,12.82
2022-10-23T00:56:56.613Z,12.73
2022-10-23T00:59:24.298Z,12.83
2022-10-23T01:01:51.371Z,12.78
2022-10-23T01:04:19.186Z,12.66
2022-10-23T01:07:09.546Z,12.66
2022-10-23T01:09:36.425Z,12.60
2022-10-23T01:12:11.171Z,12.57
2022-10-23T01:14:47.634Z,12.62
2022-10-23T01:17:30.065Z,12.68
2022-10-23T01:20:34.691Z,12.73
2022-10-23T01:23:30.409Z,12.61
2022-10-23T01:26:19.689Z,12.58
2022-10-23T01:28:57.334Z,12.70
2022-10-23T01:32:00.607Z,12.63
2022-10-23T01:34:47.804Z,12.54
2022-10-23T01:37:20.745Z,12.58
2022-10-23T01:39:53.801Z,12.57
2022-10-23T01:42:26.018Z,12.57
2022-10-23T01:45:02.019Z,12.60
2022-10-23T01:47:37.783Z,12.70
2022-10-23T01:50:09.862Z,12.83
2022-10-23T01:52:38.424Z,12.78
2022-10-23T01:55:10.042Z,12.73
2022-10-23T01:57:40.602Z,12.86
2022-10-23T02:00:15.216Z,12.75
2022-10-23T02:02:52.645Z,12.70
2022-10-23T02:05:25.532Z,12.66
2022-10-23T02:07:53.654Z,12.60
2022-10-23T02:10:25.840Z,12.60
2022-10-23T02:13:09.268Z,12.57
2022-10-23T02:15:48.750Z,12.49
2022-10-23T02:18:46.464Z,12.46
2022-10-23T02:21:31.592Z,12.40
2022-10-23T02:24:25.443Z,12.38
2022-10-23T02:27:01.398Z,12.39
2022-10-23T02:29:41.323Z,12.32
2022-10-23T02:32:10.112Z,12.26
2022-10-23T02:34:37.368Z,12.23
2022-10-23T02:37:04.831Z,12.22
2022-10-23T02:39:31.920Z,12.31
2022-10-23T02:42:37.155Z,12.38
2022-10-23T02:45:10.051Z,12.42
2022-10-23T02:47:58.358Z,12.60
2022-10-23T02:50:32.421Z,12.63
2022-10-23T02:53:16.192Z,12.58
2022-10-23T02:56:00.769Z,12.52
2022-10-23T02:58:36.896Z,12.60
2022-10-23T03:01:12.022Z,12.68
2022-10-23T03:03:45.802Z,12.68
2022-10-23T03:06:13.783Z,12.74
2022-10-23T03:09:02.729Z,12.70
2022-10-23T03:11:30.182Z,12.83
2022-10-23T03:13:57.495Z,12.77
2022-10-23T03:16:24.858Z,12.86
2022-10-23T03:18:54.418Z,12.77
2022-10-23T03:21:21.898Z,12.76
2022-10-23T03:23:52.543Z,12.63
2022-10-23T03:26:26.783Z,12.55
2022-10-23T03:28:53.834Z,12.53
2022-10-23T03:31:22.042Z,12.41
2022-10-23T03:33:54.508Z,12.37
2022-10-23T03:36:22.196Z,12.36
2022-10-23T03:38:49.172Z,12.32
2022-10-23T03:41:16.224Z,12.54
2022-10-23T03:43:43.179Z,12.40
2022-10-23T03:46:13.016Z,12.45
2022-10-23T03:48:41.117Z,12.51
2022-10-23T03:51:08.606Z,12.34
2022-10-23T03:53:35.719Z,12.35
2022-10-23T03:56:04.860Z,12.52
2022-10-23T03:58:33.842Z,12.60
2022-10-23T04:01:00.897Z,12.49
2022-10-23T04:03:28.037Z,12.48
2022-10-23T04:05:54.949Z,12.56
2022-10-23T04:08:22.703Z,12.54
2022-10-23T04:10:54.604Z,12.57
2022-10-23T04:13:32.271Z,12.54
2022-10-23T04:15:59.370Z,12.54
2022-10-23T04:18:26.349Z,12.56
2022-10-23T04:20:53.430Z,12.43
2022-10-23T04:23:20.885Z,12.32
2022-10-23T04:28:35.246Z,12.21
2022-10-23T04:31:02.233Z,12.24
2022-10-23T04:33:29.256Z,12.16
2022-10-23T04:35:56.666Z,12.22
2022-10-23T04:38:23.857Z,12.28
2022-10-23T04:40:50.901Z,12.26
2022-10-23T04:43:21.578Z,12.35
2022-10-23T04:45:49.410Z,12.23
2022-10-23T04:48:16.554Z,12.37
2022-10-23T04:51:05.856Z,12.35
2022-10-23T04:54:09.634Z,12.28
2022-10-23T04:56:45.470Z,12.31
2022-10-23T04:59:16.345Z,12.31
2022-10-23T05:01:43.749Z,12.31
2022-10-23T05:04:10.749Z,12.31
2022-10-23T05:07:12.816Z,12.27
2022-10-23T05:09:53.519Z,12.28
2022-10-23T05:12:31.809Z,12.32
2022-10-23T05:14:59.001Z,12.35
2022-10-23T05:17:32.539Z,12.31
2022-10-23T05:20:02.947Z,12.34
2022-10-23T05:22:35.995Z,12.42
2022-10-23T05:25:06.113Z,12.37
2022-10-23T05:27:34.055Z,12.38
2022-10-23T05:30:02.710Z,12.30
2022-10-23T05:32:35.140Z,12.36
2022-10-23T05:35:08.229Z,12.32
2022-10-23T05:37:38.689Z,12.35
2022-10-23T05:40:13.573Z,12.40
2022-10-23T05:42:42.452Z,12.42
2022-10-23T05:45:12.187Z,12.39
2022-10-23T05:48:10.960Z,12.37
2022-10-23T05:51:11.054Z,12.25
2022-10-23T05:53:49.454Z,12.41
2022-10-23T05:56:43.396Z,12.29
2022-10-23T05:59:32.730Z,12.33
2022-10-23T06:02:11.464Z,12.27
2022-10-23T06:04:52.157Z,12.46
2022-10-23T06:07:37.921Z,12.30
2022-10-23T06:10:07.147Z,12.29
2022-10-23T06:12:39.085Z,12.33
2022-10-23T06:15:07.105Z,12.33
2022-10-23T06:18:01.199Z,12.38
2022-10-23T06:20:29.849Z,12.68
2022-10-23T06:23:07.523Z,12.88
2022-10-23T06:26:12.679Z,13.02
2022-10-23T06:29:03.025Z,13.05
2022-10-23T06:31:30.169Z,12.91
2022-10-23T06:33:59.769Z,12.99
2022-10-23T06:36:28.943Z,13.16
2022-10-23T06:39:05.539Z,13.06
2022-10-23T06:41:51.512Z,13.08
2022-10-23T06:44:38.481Z,13.36
2022-10-23T06:47:14.534Z,13.21
2022-10-23T06:50:11.712Z,13.23
2022-10-23T06:52:46.956Z,13.24
2022-10-23T06:55:17.192Z,13.16
2022-10-23T06:57:45.064Z,13.28
2022-10-23T07:00:13.121Z,13.65
2022-10-23T07:02:50.200Z,13.58
2022-10-23T07:05:18.384Z,13.61
2022-10-23T07:07:45.496Z,13.69
2022-10-23T07:10:17.083Z,13.69
2022-10-23T07:12:48.990Z,13.71
2022-10-23T07:15:32.966Z,14.07
2022-10-23T07:18:00.525Z,13.91
2022-10-23T07:20:39.306Z,13.88
2022-10-23T07:23:06.404Z,13.98
2022-10-23T07:25:38.085Z,13.98
2022-10-23T07:28:06.324Z,13.94
2022-10-23T07:30:33.882Z,13.99
2022-10-23T07:33:02.049Z,13.80
2022-10-23T07:35:50.198Z,14.00
2022-10-23T07:38:26.067Z,13.99
2022-10-23T07:40:57.917Z,14.12
2022-10-23T07:43:26.259Z,14.48
2022-10-23T07:45:54.272Z,14.67
2022-10-23T07:48:30.869Z,14.53
2022-10-23T07:51:01.617Z,14.42
2022-10-23T07:53:29.561Z,14.58
2022-10-23T07:56:12.479Z,14.71
2022-10-23T07:58:59.423Z,15.00
2022-10-23T08:01:33.683Z,15.15
2022-10-23T08:04:01.142Z,15.17
2022-10-23T08:06:29.263Z,15.42
2022-10-23T08:08:59.083Z,15.62
2022-10-23T08:11:31.114Z,15.62
2022-10-23T08:13:58.800Z,15.74
2022-10-23T08:16:28.456Z,15.98
2022-10-23T08:19:24.250Z,16.48
2022-10-23T08:21:55.370Z,16.50
2022-10-23T08:24:22.393Z,16.16
2022-10-23T08:26:50.509Z,15.74
2022-10-23T08:29:20.335Z,15.76
2022-10-23T08:31:48.689Z,15.56
2022-10-23T08:34:25.163Z,16.31
2022-10-23T08:36:54.470Z,16.47
2022-10-23T08:39:21.569Z,15.90
2022-10-23T08:42:22.248Z,15.78
2022-10-23T08:44:58.766Z,15.76
2022-10-23T08:47:42.962Z,16.37
2022-10-23T08:50:40.464Z,16.92
2022-10-23T08:53:28.593Z,17.22
2022-10-23T08:56:12.335Z,17.32
2022-10-23T08:58:47.498Z,17.03
2022-10-23T09:01:48.047Z,17.44
2022-10-23T09:04:15.751Z,16.85
2022-10-23T09:10:31.363Z,17.18
2022-10-23T09:13:35.034Z,17.23
2022-10-23T09:16:01.988Z,17.32
2022-10-23T09:18:31.309Z,17.35
2022-10-23T09:20:58.767Z,17.36
2022-10-23T09:23:25.770Z,17.44
2022-10-23T09:25:57.178Z,17.43
2022-10-23T09:28:32.819Z,17.83
2022-10-23T09:31:12.110Z,17.68
2022-10-23T09:33:39.966Z,18.11
2022-10-23T09:36:07.276Z,18.06
2022-10-23T09:38:34.305Z,17.90
2022-10-23T09:41:17.542Z,17.73
2022-10-23T09:43:44.546Z,17.58
2022-10-23T09:46:12.392Z,17.92
2022-10-23T09:48:42.561Z,18.48
2022-10-23T09:51:21.686Z,18.44
2022-10-23T09:53:50.529Z,18.12
2022-10-23T09:56:24.701Z,17.91
2022-10-23T09:58:59.685Z,17.39
2022-10-23T10:01:38.641Z,17.79
2022-10-23T10:04:41.945Z,17.31
2022-10-23T10:07:21.771Z,17.60
2022-10-23T10:09:49.062Z,18.11
2022-10-23T10:12:37.822Z,17.82
2022-10-23T10:15:16.776Z,18.30
2022-10-23T10:17:57.335Z,18.48
2022-10-23T10:20:34.796Z,18.85
2022-10-23T10:23:17.558Z,18.78
2022-10-23T10:26:08.921Z,18.94
2022-10-23T10:29:01.628Z,19.31
2022-10-23T10:31:54.863Z,19.37
2022-10-23T10:34:56.803Z,19.11
2022-10-23T10:37:33.690Z,18.78
2022-10-23T10:40:15.915Z,18.45
2022-10-23T10:43:04.379Z,18.47
2022-10-23T10:45:39.470Z,18.56
2022-10-23T10:48:24.344Z,18.72
2022-10-23T10:51:33.391Z,18.62
2022-10-23T10:54:00.406Z,18.84
2022-10-23T10:56:31.812Z,18.69
2022-10-23T10:59:03.306Z,18.96
2022-10-23T11:02:06.360Z,18.88
2022-10-23T11:05:03.572Z,18.44
2022-10-23T11:07:41.843Z,18.64
2022-10-23T11:10:18.515Z,18.99
2022-10-23T11:12:48.170Z,19.25
2022-10-23T11:15:16.237Z,19.40
2022-10-23T11:17:49.082Z,19.15
2022-10-23T11:20:26.236Z,18.96
2022-10-23T11:23:09.236Z,19.07
2022-10-23T11:25:53.889Z,19.43
2022-10-23T11:28:52.958Z,19.29
2022-10-23T11:31:36.387Z,19.47
2022-10-23T11:34:12.575Z,19.48
2022-10-23T11:36:56.495Z,19.62
2022-10-23T11:39:29.622Z,19.93
2022-10-23T11:42:07.563Z,19.76
2022-10-23T11:44:47.736Z,19.79
2022-10-23T11:47:40.667Z,19.93
2022-10-23T11:50:07.792Z,19.91
2022-10-23T11:53:19.891Z,19.74
2022-10-23T11:56:05.733Z,19.80
2022-10-23T11:58:48.914Z,19.96
2022-10-23T12:01:20.083Z,20.20
2022-10-23T12:03:55.861Z,20.29
2022-10-23T12:06:39.307Z,20.35
2022-10-23T12:09:22.560Z,20.22
2022-10-23T12:12:01.830Z,20.50
2022-10-23T12:14:34.872Z,20.68
2022-10-23T12:17:02.579Z,20.74
2022-10-23T12:19:41.225Z,20.76
2022-10-23T12:22:11.448Z,21.02
2022-10-23T12:24:52.180Z,20.96
2022-10-23T12:27:22.991Z,21.03
2022-10-23T12:30:09.876Z,21.41
2022-10-23T12:32:54.364Z,21.63
2022-10-23T12:35:25.808Z,21.50
2022-10-23T12:38:20.712Z,21.43
2022-10-23T12:41:15.127Z,21.63
2022-10-23T12:43:51.379Z,21.93
2022-10-23T12:46:31.149Z,21.78
2022-10-23T12:49:00.251Z,21.96
2022-10-23T12:51:30.130Z,22.01
2022-10-23T12:53:57.433Z,21.83
2022-10-23T12:56:30.580Z,22.06
2022-10-23T12:59:04.082Z,22.25
2022-10-23T13:01:34.028Z,22.31
2022-10-23T13:04:26.788Z,22.16
2022-10-23T13:06:56.265Z,22.40
2022-10-23T13:09:29.838Z,22.37
2022-10-23T13:12:25.474Z,22.45
2022-10-23T13:15:00.070Z,22.33
2022-10-23T13:17:41.241Z,22.49
2022-10-23T13:20:18.344Z,22.56
2022-10-23T13:22:48.212Z,22.63
2022-10-23T13:25:21.373Z,22.51
2022-10-23T13:27:48.576Z,22.35
2022-10-23T13:30:40.295Z,22.27
2022-10-23T13:33:32.725Z,22.50
2022-10-23T13:36:02.939Z,22.57
2022-10-23T13:38:31.602Z,22.57
2022-10-23T13:41:00.638Z,22.38
2022-10-23T13:43:30.811Z,22.55
2022-10-23T13:46:02.098Z,22.60
2022-10-23T13:48:29.512Z,22.69
2022-10-23T13:51:11.995Z,22.75
2022-10-23T13:53:39.021Z,22.79
2022-10-23T13:56:06.571Z,22.72
2022-10-23T13:58:33.535Z,22.77
2022-10-23T14:01:00.683Z,22.83
2022-10-23T14:03:27.803Z,22.71
2022-10-23T14:05:54.827Z,22.84
2022-10-23T14:08:21.912Z,22.72
2022-10-23T14:10:48.903Z,22.62
2022-10-23T14:13:16.540Z,22.60
2022-10-23T14:15:43.424Z,22.63
2022-10-23T14:18:11.022Z,22.59
2022-10-23T14:20:39.174Z,22.74
2022-10-23T14:23:06.168Z,22.56
2022-10-23T14:25:33.193Z,22.54
2022-10-23T14:28:00.334Z,22.69
2022-10-23T14:30:27.327Z,22.56
2022-10-23T14:32:54.425Z,22.59
2022-10-23T14:35:21.351Z,22.46
2022-10-23T14:37:48.452Z,22.47
2022-10-23T14:40:15.435Z,22.32
2022-10-23T14:42:42.632Z,22.18
2022-10-23T14:45:10.246Z,22.12
2022-10-23T14:47:37.157Z,22.08
2022-10-23T14:50:04.502Z,22.06
2022-10-23T14:52:38.863Z,22.08
2022-10-23T14:55:19.838Z,22.06
2022-10-23T14:57:46.976Z,21.88
2022-10-23T15:00:15.570Z,21.81
2022-10-23T15:02:42.858Z,21.63
2022-10-23T15:05:10.185Z,21.57
2022-10-23T15:07:37.266Z,21.54
2022-10-23T15:10:05.289Z,21.42
2022-10-23T15:12:35.028Z,21.39
2022-10-23T15:15:02.981Z,21.30
2022-10-23T15:17:30.101Z,21.16
2022-10-23T15:19:57.099Z,21.17
2022-10-23T15:22:24.302Z,21.02
2022-10-23T15:24:52.259Z,20.98
2022-10-23T15:27:20.082Z,21.12
2022-10-23T15:29:47.157Z,21.11
2022-10-23T15:32:14.208Z,21.00
2022-10-23T15:34:42.953Z,20.89
2022-10-23T15:37:10.466Z,20.97
2022-10-23T15:39:37.897Z,20.85
2022-10-23T15:42:06.855Z,20.84
2022-10-23T15:44:34.289Z,20.92
2022-10-23T15:47:01.583Z,20.92
2022-10-23T15:49:32.768Z,20.92
2022-10-23T15:51:59.890Z,20.78
2022-10-23T15:54:30.465Z,20.73
2022-10-23T15:56:59.966Z,20.75
2022-10-23T15:59:27.512Z,20.63
2022-10-23T16:01:55.767Z,20.66
2022-10-23T16:04:23.462Z,20.59
2022-10-23T16:06:51.447Z,20.58
2022-10-23T16:09:21.713Z,20.44
2022-10-23T16:11:48.765Z,20.57
2022-10-23T16:14:17.696Z,20.60
2022-10-23T16:16:45.519Z,20.53
2022-10-23T16:19:13.144Z,20.48
2022-10-23T16:21:41.529Z,20.43
2022-10-23T16:24:09.913Z,20.29
2022-10-23T16:26:37.970Z,20.33
2022-10-23T16:29:07.407Z,20.31
2022-10-23T16:31:34.638Z,20.21
2022-10-23T16:34:02.892Z,20.15
2022-10-23T16:36:29.872Z,20.29
2022-10-23T16:39:18.992Z,20.32
2022-10-23T16:42:08.811Z,20.37
2022-10-23T16:44:56.841Z,20.41
2022-10-23T16:47:24.211Z,20.37
2022-10-23T16:49:51.149Z,20.46
2022-10-23T16:52:18.187Z,20.47
2022-10-23T16:54:45.197Z,20.58
2022-10-23T16:57:12.306Z,20.61
2022-10-23T16:59:39.310Z,20.55
2022-10-23T17:02:11.141Z,20.52
2022-10-23T17:04:41.010Z,20.62
2022-10-23T17:07:08.172Z,20.62
2022-10-23T17:09:35.898Z,20.50
2022-10-23T17:12:02.901Z,20.56
2022-10-23T17:14:30.111Z,20.62
2022-10-23T17:17:19.392Z,20.64
2022-10-23T17:19:46.859Z,20.55
2022-10-23T17:22:15.398Z,20.45
2022-10-23T17:24:45.337Z,20.47
2022-10-23T17:27:14.852Z,20.59
2022-10-23T17:29:41.762Z,20.48
2022-10-23T17:32:08.908Z,20.53
2022-10-23T17:34:35.933Z,20.50
2022-10-23T17:37:02.938Z,20.49
2022-10-23T17:39:30.596Z,20.38
2022-10-23T17:41:57.794Z,20.47
2022-10-23T17:44:25.053Z,20.33
2022-10-23T17:46:55.607Z,20.36
2022-10-23T17:49:24.423Z,20.30
2022-10-23T17:51:56.877Z,20.28
2022-10-23T17:54:26.127Z,20.21
2022-10-23T17:56:53.161Z,20.14
2022-10-23T17:59:20.423Z,20.08
2022-10-23T18:01:48.865Z,20.11
2022-10-23T18:04:17.901Z,20.13
2022-10-23T18:06:48.078Z,20.06
2022-10-23T18:09:15.604Z,19.90
2022-10-23T18:11:48.190Z,19.94
2022-10-23T18:14:17.859Z,19.96
2022-10-23T18:16:46.120Z,19.91
2022-10-23T18:19:15.356Z,19.95
2022-10-23T18:21:42.427Z,19.91
2022-10-23T18:24:10.087Z,19.92
2022-10-23T18:26:39.355Z,19.84
2022-10-23T18:29:10.300Z,19.80
2022-10-23T18:31:37.910Z,19.74
2022-10-23T18:34:08.324Z,19.72
2022-10-23T18:36:38.502Z,19.68
2022-10-23T18:39:12.133Z,19.71
2022-10-23T18:41:41.584Z,19.61
2022-10-23T18:44:09.058Z,19.58
2022-10-23T18:46:36.946Z,19.57
2022-10-23T18:49:04.470Z,19.44
2022-10-23T18:51:34.756Z,19.40
2022-10-23T18:54:11.506Z,19.20
2022-10-23T18:56:39.957Z,19.26
2022-10-23T18:59:10.437Z,19.24
2022-10-23T19:01:37.783Z,19.19
2022-10-23T19:04:05.227Z,19.23
2022-10-23T19:06:32.508Z,19.18
2022-10-23T19:08:59.696Z,19.18
2022-10-23T19:11:28.344Z,19.11
2022-10-23T19:13:55.938Z,19.15
2022-10-23T19:16:30.384Z,18.97
2022-10-23T19:19:01.168Z,19.00
2022-10-23T19:21:33.266Z,19.03
2022-10-23T19:24:07.284Z,18.96
2022-10-23T19:26:37.536Z,18.81
2022-10-23T19:29:08.238Z,18.82
2022-10-23T19:31:35.604Z,18.82
2022-10-23T19:34:02.703Z,18.77
2022-10-23T19:36:29.883Z,18.80
2022-10-23T19:38:56.975Z,18.82
2022-10-23T19:41:24.004Z,18.75
2022-10-23T19:43:50.905Z,18.86
2022-10-23T19:46:18.095Z,18.92
2022-10-23T19:48:47.437Z,18.91
2022-10-23T19:51:15.311Z,18.90
2022-10-23T19:53:42.893Z,18.95
2022-10-23T19:56:12.062Z,18.89
2022-10-23T19:58:40.604Z,18.95
2022-10-23T20:01:10.891Z,18.96
2022-10-23T20:03:39.176Z,18.89
2022-10-23T20:06:12.421Z,18.81
2022-10-23T20:08:40.573Z,18.71
2022-10-23T20:11:09.100Z,18.78
2022-10-23T20:13:36.571Z,18.59
2022-10-23T20:16:03.915Z,18.70
2022-10-23T20:18:30.940Z,18.73
2022-10-23T20:21:02.424Z,18.74
2022-10-23T20:23:29.456Z,18.63
2022-10-23T20:26:04.683Z,18.55
2022-10-23T20:28:31.819Z,18.46
2022-10-23T20:30:58.931Z,18.44
2022-10-23T20:33:26.137Z,18.38
2022-10-23T20:35:53.275Z,18.40
2022-10-23T20:38:20.362Z,18.31
2022-10-23T20:40:47.300Z,18.18
2022-10-23T20:43:14.336Z,18.15
2022-10-23T20:45:41.253Z,18.22
2022-10-23T20:48:08.246Z,18.13
2022-10-23T20:50:35.376Z,18.17
2022-10-23T20:53:02.513Z,18.14
2022-10-23T20:55:29.442Z,18.17
2022-10-23T20:57:56.969Z,18.10
2022-10-23T21:00:23.987Z,18.05
2022-10-23T21:02:52.686Z,18.09
2022-10-23T21:05:19.952Z,17.95
2022-10-23T21:07:46.926Z,17.97
2022-10-23T21:10:13.955Z,18.04
2022-10-23T21:12:41.102Z,17.94
2022-10-23T21:15:09.197Z,18.03
2022-10-23T21:17:40.198Z,18.01
2022-10-23T21:20:07.436Z,17.99
2022-10-23T21:22:34.396Z,18.01
2022-10-23T21:25:01.846Z,18.00
2022-10-23T21:27:28.834Z,18.00
2022-10-23T21:29:56.005Z,17.94
2022-10-23T21:32:22.957Z,17.95
2022-10-23T21:34:50.065Z,17.91
2022-10-23T21:37:17.021Z,17.96
2022-10-23T21:39:44.575Z,17.94
2022-10-23T21:42:13.415Z,18.02
2022-10-23T21:44:40.533Z,18.07
2022-10-23T21:47:07.463Z,18.03
2022-10-23T21:49:34.611Z,17.95
2022-10-23T21:52:01.626Z,17.95
2022-10-23T21:54:28.702Z,17.89
2022-10-23T21:56:55.790Z,17.85
2022-10-23T21:59:27.788Z,17.89
2022-10-23T22:01:57.517Z,17.84
2022-10-23T22:04:24.733Z,17.84
2022-10-23T22:06:53.449Z,17.73
2022-10-23T22:09:21.371Z,17.75
2022-10-23T22:11:50.291Z,17.77
2022-10-23T22:14:18.000Z,17.73
2022-10-23T22:16:45.371Z,17.68
2022-10-23T22:19:14.733Z,17.60
2022-10-23T22:21:41.795Z,17.51
2022-10-23T22:24:09.248Z,17.49
2022-10-23T22:26:45.468Z,17.31
2022-10-23T22:29:16.553Z,17.34
2022-10-23T22:31:47.277Z,17.31
2022-10-23T22:37:11.554Z,17.30
2022-10-23T22:39:39.065Z,17.31
2022-10-23T22:42:06.211Z,17.31
2022-10-23T22:44:33.224Z,17.29
2022-10-23T22:47:00.436Z,17.36
2022-10-23T22:49:27.389Z,17.42
2022-10-23T22:51:54.347Z,17.39
2022-10-23T22:54:21.343Z,17.47
2022-10-23T22:56:48.449Z,17.51
2022-10-23T22:59:15.371Z,17.56
2022-10-23T23:01:47.308Z,17.56
2022-10-23T23:07:07.089Z,17.63
2022-10-23T23:09:39.841Z,17.61
2022-10-23T23:12:08.169Z,17.52
2022-10-23T23:14:35.203Z,17.51
2022-10-23T23:17:02.675Z,17.53
2022-10-23T23:19:29.606Z,17.54
2022-10-23T23:21:58.904Z,17.47
2022-10-23T23:24:26.473Z,17.48
2022-10-23T23:26:53.522Z,17.48
2022-10-23T23:29:20.441Z,17.42
2022-10-23T23:31:47.478Z,17.43
2022-10-23T23:34:14.490Z,17.34
2022-10-23T23:36:41.629Z,17.28
2022-10-23T23:39:08.583Z,17.33
2022-10-23T23:41:35.525Z,17.38
2022-10-23T23:44:02.477Z,17.44
2022-10-23T23:46:29.452Z,17.46
2022-10-23T23:48:56.392Z,17.45
2022-10-23T23:51:25.156Z,17.47
2022-10-23T23:53:52.743Z,17.45
2022-10-23T23:56:20.168Z,17.46
2022-10-23T23:58:47.365Z,17.41
